createdAt,value
2018-05-08T00:00:51.668Z,14.10
2018-05-08T00:03:21.632Z,14.20
2018-05-08T00:05:49.671Z,14.20
2018-05-08T00:08:19.339Z,14.20
2018-05-08T00:10:50.047Z,14.30
2018-05-08T00:13:21.971Z,14.20
2018-05-08T00:15:53.789Z,14.30
2018-05-08T00:18:32.132Z,14.30
2018-05-08T00:21:05.876Z,14.30
2018-05-08T00:23:33.891Z,14.20
2018-05-08T00:26:07.684Z,14.30
2018-05-08T00:28:38.796Z,14.20
2018-05-08T00:31:06.816Z,14.20
2018-05-08T00:33:35.716Z,14.10
2018-05-08T00:36:08.852Z,14.00
2018-05-08T00:38:37.867Z,14.00
2018-05-08T00:41:05.876Z,14.00
2018-05-08T00:43:34.849Z,14.10
2018-05-08T00:46:05.827Z,14.00
2018-05-08T00:48:34.747Z,14.00
2018-05-08T00:51:09.211Z,14.00
2018-05-08T00:53:38.276Z,14.00
2018-05-08T00:56:08.955Z,13.90
2018-05-08T00:58:43.372Z,13.80
2018-05-08T01:01:16.368Z,13.90
2018-05-08T01:03:44.407Z,13.80
2018-05-08T01:06:19.339Z,13.70
2018-05-08T01:08:48.375Z,13.60
2018-05-08T01:11:18.383Z,13.50
2018-05-08T01:13:46.388Z,13.50
2018-05-08T01:16:15.196Z,13.50
2018-05-08T01:18:43.215Z,13.40
2018-05-08T01:21:11.219Z,13.50
2018-05-08T01:23:41.088Z,13.50
2018-05-08T01:26:09.031Z,13.50
2018-05-08T01:28:37.040Z,13.60
2018-05-08T01:31:10.439Z,13.60
2018-05-08T01:33:39.419Z,13.60
2018-05-08T01:36:17.819Z,13.50
2018-05-08T01:38:45.835Z,13.40
2018-05-08T01:41:15.627Z,13.20
2018-05-08T01:43:48.314Z,13.20
2018-05-08T01:46:22.871Z,13.20
2018-05-08T01:48:52.849Z,13.10
2018-05-08T01:51:24.576Z,13.10
2018-05-08T01:53:52.606Z,13.00
2018-05-08T01:56:20.620Z,13.00
2018-05-08T01:58:50.843Z,13.00
2018-05-08T02:01:18.872Z,13.00
2018-05-08T02:03:47.803Z,12.90
2018-05-08T02:06:16.799Z,12.80
2018-05-08T02:08:44.831Z,12.80
2018-05-08T02:11:16.128Z,12.70
2018-05-08T02:13:54.523Z,12.60
2018-05-08T02:16:22.532Z,12.60
2018-05-08T02:18:52.299Z,12.60
2018-05-08T02:21:33.240Z,12.50
2018-05-08T02:24:04.532Z,12.60
2018-05-08T02:26:33.524Z,12.60
2018-05-08T02:29:03.543Z,12.60
2018-05-08T02:31:31.548Z,12.50
2018-05-08T02:34:04.296Z,12.40
2018-05-08T02:36:34.295Z,12.40
2018-05-08T02:39:03.300Z,12.40
2018-05-08T02:41:31.328Z,12.30
2018-05-08T02:43:59.340Z,12.30
2018-05-08T02:46:27.359Z,12.40
2018-05-08T02:48:59.064Z,12.40
2018-05-08T02:51:34.572Z,12.50
2018-05-08T02:54:02.584Z,12.50
2018-05-08T02:56:30.608Z,12.50
2018-05-08T02:59:00.567Z,12.50
2018-05-08T03:01:28.584Z,12.50
2018-05-08T03:03:56.595Z,12.50
2018-05-08T03:06:31.003Z,12.50
2018-05-08T03:09:00.012Z,12.50
2018-05-08T03:11:28.019Z,12.50
2018-05-08T03:14:04.928Z,12.60
2018-05-08T03:16:36.104Z,12.60
2018-05-08T03:19:06.126Z,12.60
2018-05-08T03:21:35.106Z,12.60
2018-05-08T03:24:04.103Z,12.60
2018-05-08T03:26:35.869Z,12.60
2018-05-08T03:29:07.707Z,12.60
2018-05-08T03:31:37.651Z,12.60
2018-05-08T03:34:05.659Z,12.60
2018-05-08T03:36:35.603Z,12.60
2018-05-08T03:39:03.615Z,12.60
2018-05-08T03:41:34.322Z,12.60
2018-05-08T03:44:03.311Z,12.60
2018-05-08T03:46:31.322Z,12.60
2018-05-08T03:49:05.885Z,12.50
2018-05-08T03:51:46.919Z,12.50
2018-05-08T03:54:15.698Z,12.50
2018-05-08T03:56:46.391Z,12.50
2018-05-08T03:59:14.406Z,12.50
2018-05-08T04:01:56.266Z,12.40
2018-05-08T04:04:45.294Z,12.40
2018-05-08T04:07:27.078Z,12.30
2018-05-08T04:09:55.095Z,12.30
2018-05-08T04:12:27.366Z,12.20
2018-05-08T04:15:09.503Z,12.20
2018-05-08T04:17:45.403Z,12.20
2018-05-08T04:20:13.415Z,12.20
2018-05-08T04:22:41.439Z,12.20
2018-05-08T04:25:10.461Z,12.20
2018-05-08T04:27:38.471Z,12.20
2018-05-08T04:30:06.480Z,12.20
2018-05-08T04:32:36.510Z,12.30
2018-05-08T04:35:04.514Z,12.30
2018-05-08T04:37:33.458Z,12.40
2018-05-08T04:40:01.491Z,12.40
2018-05-08T04:42:30.414Z,12.50
2018-05-08T04:44:59.399Z,12.60
2018-05-08T04:47:28.418Z,12.60
2018-05-08T04:49:56.420Z,12.70
2018-05-08T04:52:31.395Z,12.80
2018-05-08T04:55:00.399Z,12.70
2018-05-08T04:57:29.383Z,12.80
2018-05-08T04:59:57.991Z,12.90
2018-05-08T05:02:25.991Z,12.90
2018-05-08T05:04:53.998Z,13.00
2018-05-08T05:07:31.882Z,13.10
2018-05-08T05:09:59.907Z,13.10
2018-05-08T05:12:32.990Z,13.20
2018-05-08T05:15:01.011Z,13.20
2018-05-08T05:17:33.262Z,13.30
2018-05-08T05:20:04.968Z,13.40
2018-05-08T05:22:32.982Z,13.50
2018-05-08T05:25:00.991Z,13.60
2018-05-08T05:27:34.099Z,13.80
2018-05-08T05:30:03.083Z,14.00
2018-05-08T05:32:34.468Z,14.40
2018-05-08T05:35:03.422Z,14.70
2018-05-08T05:37:33.432Z,14.90
2018-05-08T05:40:01.463Z,15.10
2018-05-08T05:42:35.192Z,15.20
2018-05-08T05:45:03.155Z,15.30
2018-05-08T05:47:31.159Z,15.40
2018-05-08T05:50:03.531Z,15.50
2018-05-08T05:52:31.543Z,15.60
2018-05-08T05:54:59.583Z,15.70
2018-05-08T05:57:34.390Z,15.70
2018-05-08T06:00:07.128Z,15.90
2018-05-08T06:02:35.104Z,15.90
2018-05-08T06:05:06.883Z,16.10
2018-05-08T06:07:39.575Z,16.20
2018-05-08T06:10:13.378Z,16.40
2018-05-08T06:12:43.415Z,16.40
2018-05-08T06:15:11.423Z,16.40
2018-05-08T06:17:39.438Z,16.60
2018-05-08T06:20:07.456Z,16.80
2018-05-08T06:22:35.454Z,16.90
2018-05-08T06:25:06.794Z,16.90
2018-05-08T06:27:36.514Z,16.90
2018-05-08T06:30:04.538Z,16.90
2018-05-08T06:32:33.330Z,17.10
2018-05-08T06:35:02.106Z,17.30
2018-05-08T06:37:30.883Z,17.50
2018-05-08T06:39:58.915Z,17.40
2018-05-08T06:42:27.680Z,17.70
2018-05-08T06:44:55.682Z,17.60
2018-05-08T06:47:24.687Z,17.80
2018-05-08T06:50:02.578Z,18.10
2018-05-08T06:52:36.131Z,18.20
2018-05-08T06:55:04.903Z,18.30
2018-05-08T06:57:33.674Z,18.50
2018-05-08T07:00:06.239Z,18.50
2018-05-08T07:02:34.254Z,18.80
2018-05-08T07:05:03.183Z,18.90
2018-05-08T07:07:31.210Z,18.90
2018-05-08T07:09:59.982Z,18.60
2018-05-08T07:12:29.886Z,18.60
2018-05-08T07:14:58.848Z,18.60
2018-05-08T07:17:26.850Z,18.80
2018-05-08T07:19:58.375Z,18.90
2018-05-08T07:22:26.378Z,19.00
2018-05-08T07:24:58.633Z,19.30
2018-05-08T07:27:27.594Z,19.20
2018-05-08T07:29:58.656Z,19.50
2018-05-08T07:32:26.550Z,19.60
2018-05-08T07:34:55.314Z,19.80
2018-05-08T07:37:23.334Z,19.80
2018-05-08T07:39:54.650Z,20.00
2018-05-08T07:42:23.470Z,20.60
2018-05-08T07:44:56.346Z,20.60
2018-05-08T07:47:26.330Z,20.90
2018-05-08T07:49:56.034Z,20.90
2018-05-08T07:52:26.030Z,20.90
2018-05-08T07:54:54.034Z,21.20
2018-05-08T07:57:22.978Z,21.10
2018-05-08T08:00:02.934Z,21.10
2018-05-08T08:02:31.883Z,21.60
2018-05-08T08:05:01.870Z,21.90
2018-05-08T08:07:34.745Z,21.60
2018-05-08T08:10:06.370Z,22.10
2018-05-08T08:12:35.646Z,22.20
2018-05-08T08:15:03.649Z,22.10
2018-05-08T08:17:38.165Z,22.10
2018-05-08T08:20:06.180Z,22.60
2018-05-08T08:22:36.146Z,22.90
2018-05-08T08:25:21.562Z,22.90
2018-05-08T08:28:09.426Z,23.20
2018-05-08T08:30:37.441Z,23.10
2018-05-08T08:33:06.337Z,22.90
2018-05-08T08:35:34.347Z,23.10
2018-05-08T08:38:03.134Z,23.00
2018-05-08T08:40:31.910Z,23.20
2018-05-08T08:43:07.998Z,23.20
2018-05-08T08:45:37.946Z,23.20
2018-05-08T08:48:11.138Z,23.30
2018-05-08T08:50:46.542Z,23.50
2018-05-08T08:53:16.510Z,23.50
2018-05-08T08:55:49.170Z,23.50
2018-05-08T08:58:18.167Z,24.00
2018-05-08T09:00:47.148Z,23.60
2018-05-08T09:03:15.715Z,22.90
2018-05-08T09:05:56.363Z,23.00
2018-05-08T09:08:24.367Z,23.30
2018-05-08T09:10:52.363Z,23.50
2018-05-08T09:13:21.331Z,23.80
2018-05-08T09:15:53.690Z,24.40
2018-05-08T09:18:27.318Z,24.90
2018-05-08T09:21:10.473Z,24.90
2018-05-08T09:23:41.183Z,24.00
2018-05-08T09:26:09.184Z,23.90
2018-05-08T09:28:38.938Z,24.80
2018-05-08T09:31:06.947Z,24.70
2018-05-08T09:33:37.611Z,24.90
2018-05-08T09:36:15.269Z,24.90
2018-05-08T09:38:45.162Z,25.30
2018-05-08T09:41:17.027Z,25.90
2018-05-08T09:43:49.632Z,26.10
2018-05-08T09:46:23.198Z,26.70
2018-05-08T09:48:51.270Z,26.60
2018-05-08T09:51:30.260Z,26.60
2018-05-08T09:53:59.270Z,26.60
2018-05-08T09:56:29.179Z,26.60
2018-05-08T09:59:00.955Z,26.20
2018-05-08T10:01:28.987Z,25.70
2018-05-08T10:03:56.978Z,26.20
2018-05-08T10:06:25.894Z,26.80
2018-05-08T10:08:54.874Z,27.90
2018-05-08T10:11:22.875Z,28.80
2018-05-08T10:13:52.655Z,29.10
2018-05-08T10:16:24.266Z,29.10
2018-05-08T10:18:55.922Z,28.60
2018-05-08T10:21:30.346Z,28.70
2018-05-08T10:23:58.359Z,29.00
2018-05-08T10:26:28.254Z,29.00
2018-05-08T10:28:56.266Z,29.10
2018-05-08T10:31:24.286Z,29.50
2018-05-08T10:33:55.906Z,30.20
2018-05-08T10:36:26.703Z,28.80
2018-05-08T10:38:54.698Z,28.70
2018-05-08T10:41:24.473Z,30.20
2018-05-08T10:43:52.490Z,30.20
2018-05-08T10:46:21.263Z,29.30
2018-05-08T10:49:04.918Z,28.70
2018-05-08T10:51:32.918Z,28.70
2018-05-08T10:54:01.828Z,28.00
2018-05-08T10:56:32.865Z,27.70
2018-05-08T10:59:04.507Z,27.60
2018-05-08T11:01:34.484Z,28.00
2018-05-08T11:04:03.414Z,28.10
2018-05-08T11:06:31.414Z,28.40
2018-05-08T11:09:10.094Z,28.20
2018-05-08T11:11:38.086Z,28.40
2018-05-08T11:14:06.102Z,29.10
2018-05-08T11:16:34.894Z,29.50
2018-05-08T11:19:28.262Z,29.10
2018-05-08T11:22:17.825Z,29.00
2018-05-08T11:24:46.634Z,30.60
2018-05-08T11:27:22.814Z,30.50
2018-05-08T11:30:00.581Z,29.20
2018-05-08T11:32:30.549Z,28.60
2018-05-08T11:34:58.561Z,29.20
2018-05-08T11:37:26.566Z,30.70
2018-05-08T11:39:56.258Z,29.60
2018-05-08T11:42:31.926Z,29.60
2018-05-08T11:45:09.658Z,28.40
2018-05-08T11:47:38.617Z,28.20
2018-05-08T11:50:06.671Z,28.10
2018-05-08T11:52:39.385Z,28.40
2018-05-08T11:55:19.804Z,29.50
2018-05-08T11:57:47.822Z,31.60
2018-05-08T12:00:18.934Z,32.00
2018-05-08T12:02:46.970Z,32.40
2018-05-08T12:05:15.733Z,29.40
2018-05-08T12:07:48.082Z,28.70
2018-05-08T12:10:16.094Z,28.70
2018-05-08T12:12:44.461Z,30.20
2018-05-08T12:15:18.315Z,30.70
2018-05-08T12:17:51.274Z,30.70
2018-05-08T12:20:20.222Z,29.60
2018-05-08T12:22:50.214Z,30.50
2018-05-08T12:25:18.266Z,31.70
2018-05-08T12:27:48.234Z,30.60
2018-05-08T12:30:18.226Z,31.70
2018-05-08T12:32:52.930Z,32.30
2018-05-08T12:35:28.882Z,31.70
2018-05-08T12:37:56.906Z,30.90
2018-05-08T12:40:25.894Z,31.40
2018-05-08T12:43:10.681Z,31.40
2018-05-08T12:45:40.450Z,31.10
2018-05-08T12:48:08.470Z,31.10
2018-05-08T12:50:37.405Z,32.50
2018-05-08T12:53:10.111Z,34.20
2018-05-08T12:55:38.997Z,32.50
2018-05-08T12:58:07.005Z,31.60
2018-05-08T13:00:35.002Z,31.40
2018-05-08T13:03:03.927Z,32.30
2018-05-08T13:05:33.609Z,32.10
2018-05-08T13:08:07.221Z,32.00
2018-05-08T13:10:35.221Z,31.10
2018-05-08T13:13:06.001Z,30.30
2018-05-08T13:15:34.016Z,30.30
2018-05-08T13:18:04.718Z,31.70
2018-05-08T13:20:34.737Z,31.70
2018-05-08T13:23:03.729Z,33.50
2018-05-08T13:25:31.725Z,34.10
2018-05-08T13:28:06.991Z,31.10
2018-05-08T13:30:39.013Z,31.10
2018-05-08T13:33:09.014Z,30.70
2018-05-08T13:35:37.914Z,31.70
2018-05-08T13:38:05.933Z,32.40
2018-05-08T13:40:39.730Z,32.80
2018-05-08T13:43:07.721Z,32.30
2018-05-08T13:45:37.706Z,31.10
2018-05-08T13:48:05.728Z,30.50
2018-05-08T13:50:33.726Z,30.80
2018-05-08T13:53:02.625Z,32.10
2018-05-08T13:55:31.621Z,34.80
2018-05-08T13:58:00.401Z,33.20
2018-05-08T14:00:33.417Z,33.10
2018-05-08T14:03:02.341Z,30.60
2018-05-08T14:05:35.801Z,30.40
2018-05-08T14:08:10.219Z,32.90
2018-05-08T14:10:38.249Z,33.50
2018-05-08T14:13:06.483Z,34.60
2018-05-08T14:15:34.259Z,33.90
2018-05-08T14:18:03.289Z,29.40
2018-05-08T14:20:32.277Z,27.20
2018-05-08T14:23:02.261Z,28.80
2018-05-08T14:25:35.795Z,31.10
2018-05-08T14:28:03.797Z,31.10
2018-05-08T14:30:34.569Z,29.90
2018-05-08T14:33:03.577Z,29.80
2018-05-08T14:35:31.569Z,29.90
2018-05-08T14:38:02.252Z,28.10
2018-05-08T14:40:31.245Z,28.10
2018-05-08T14:42:59.248Z,26.90
2018-05-08T14:45:33.111Z,25.90
2018-05-08T14:48:06.801Z,27.40
2018-05-08T14:50:39.776Z,29.70
2018-05-08T14:53:07.781Z,30.00
2018-05-08T14:55:35.777Z,30.50
2018-05-08T14:58:06.933Z,30.90
2018-05-08T15:00:39.866Z,28.20
2018-05-08T15:03:07.870Z,28.20
2018-05-08T15:05:35.879Z,28.00
2018-05-08T15:10:33.709Z,31.10
2018-05-08T15:13:01.707Z,29.60
2018-05-08T15:15:33.329Z,28.00
2018-05-08T15:18:01.328Z,27.20
2018-05-08T15:20:32.745Z,26.40
2018-05-08T15:23:02.745Z,26.80
2018-05-08T15:25:30.752Z,28.90
2018-05-08T15:28:17.847Z,29.60
2018-05-08T15:30:45.844Z,29.60
2018-05-08T15:33:17.572Z,28.40
2018-05-08T15:35:46.556Z,27.30
2018-05-08T15:38:21.760Z,27.20
2018-05-08T15:40:50.644Z,28.10
2018-05-08T15:43:18.665Z,28.60
2018-05-08T15:45:48.576Z,28.30
2018-05-08T15:48:22.953Z,28.00
2018-05-08T15:50:54.980Z,28.70
2018-05-08T15:53:22.984Z,28.60
2018-05-08T15:55:51.904Z,27.40
2018-05-08T15:58:32.979Z,28.60
2018-05-08T16:01:00.983Z,28.60
2018-05-08T16:03:28.976Z,29.10
2018-05-08T16:06:03.544Z,27.90
2018-05-08T16:08:32.436Z,27.90
2018-05-08T16:11:00.424Z,26.80
2018-05-08T16:13:29.408Z,25.60
2018-05-08T16:16:10.420Z,24.40
2018-05-08T16:18:39.209Z,23.30
2018-05-08T16:21:14.365Z,23.50
2018-05-08T16:23:42.377Z,23.50
2018-05-08T16:26:16.752Z,24.70
2018-05-08T16:28:47.940Z,25.80
2018-05-08T16:31:16.836Z,26.30
2018-05-08T16:33:44.888Z,26.50
2018-05-08T16:36:12.907Z,26.80
2018-05-08T16:38:41.843Z,27.00
2018-05-08T16:41:11.794Z,26.30
2018-05-08T16:43:43.116Z,26.60
2018-05-08T16:46:11.116Z,26.90
2018-05-08T16:48:41.100Z,26.90
2018-05-08T16:51:10.108Z,26.50
2018-05-08T16:53:38.117Z,25.60
2018-05-08T16:56:07.864Z,24.80
2018-05-08T16:58:40.487Z,25.40
2018-05-08T17:01:09.440Z,25.30
2018-05-08T17:03:38.448Z,25.50
2018-05-08T17:06:07.416Z,25.20
2018-05-08T17:08:46.341Z,24.90
2018-05-08T17:11:20.128Z,24.50
2018-05-08T17:13:58.773Z,24.20
2018-05-08T17:16:38.005Z,24.10
2018-05-08T17:19:06.133Z,24.10
2018-05-08T17:21:44.780Z,24.10
2018-05-08T17:24:13.796Z,24.10
2018-05-08T17:26:41.793Z,23.80
2018-05-08T17:29:11.792Z,23.50
2018-05-08T17:31:40.776Z,23.40
2018-05-08T17:34:12.445Z,23.30
2018-05-08T17:36:41.428Z,23.20
2018-05-08T17:39:11.324Z,23.20
2018-05-08T17:41:44.180Z,23.20
2018-05-08T17:44:12.344Z,23.20
2018-05-08T17:46:40.993Z,23.10
2018-05-08T17:49:09.008Z,23.00
2018-05-08T17:51:37.012Z,22.90
2018-05-08T17:54:15.008Z,22.80
2018-05-08T17:56:43.032Z,22.60
2018-05-08T17:59:15.225Z,22.20
2018-05-08T18:04:48.364Z,22.00
2018-05-08T18:07:37.475Z,21.80
2018-05-08T18:10:13.086Z,21.30
2018-05-08T18:12:53.757Z,21.30
2018-05-08T18:15:42.764Z,21.00
2018-05-08T18:21:11.116Z,20.60
2018-05-08T18:23:39.144Z,20.40
2018-05-08T18:26:10.328Z,20.30
2018-05-08T18:28:44.542Z,20.20
2018-05-08T18:31:17.676Z,20.10
2018-05-08T18:33:46.632Z,20.00
2018-05-08T18:36:18.996Z,19.90
2018-05-08T18:41:50.945Z,19.70
2018-05-08T18:44:38.547Z,19.60
2018-05-08T18:47:12.543Z,19.50
2018-05-08T18:49:47.996Z,19.50
2018-05-08T18:52:22.167Z,19.30
2018-05-08T18:54:53.947Z,19.20
2018-05-08T18:57:22.719Z,19.10
2018-05-08T18:59:51.695Z,19.10
2018-05-08T19:02:23.147Z,19.00
2018-05-08T19:04:51.153Z,18.90
2018-05-08T19:07:23.500Z,18.80
2018-05-08T19:10:10.687Z,18.80
2018-05-08T19:12:38.739Z,18.80
2018-05-08T19:15:19.251Z,18.70
2018-05-08T19:17:48.303Z,18.70
2018-05-08T19:20:18.247Z,18.80
2018-05-08T19:22:47.259Z,18.80
2018-05-08T19:25:16.263Z,18.80
2018-05-08T19:27:45.215Z,18.80
2018-05-08T19:30:24.479Z,18.80
2018-05-08T19:33:06.088Z,18.80
2018-05-08T19:35:43.971Z,18.70
2018-05-08T19:38:15.884Z,18.60
2018-05-08T19:40:47.875Z,18.60
2018-05-08T19:43:15.891Z,18.50
2018-05-08T19:45:44.656Z,18.30
2018-05-08T19:48:20.864Z,18.30
2018-05-08T19:50:50.806Z,18.20
2018-05-08T19:53:18.824Z,18.10
2018-05-08T19:55:47.603Z,18.10
2018-05-08T19:58:21.615Z,18.00
2018-05-08T20:00:49.703Z,18.00
2018-05-08T20:03:19.627Z,18.00
2018-05-08T20:05:47.623Z,17.90
2018-05-08T20:08:15.643Z,17.80
2018-05-08T20:10:43.675Z,17.80
2018-05-08T20:13:18.059Z,17.70
2018-05-08T20:15:46.135Z,17.60
2018-05-08T20:18:15.051Z,17.50
2018-05-08T20:20:45.039Z,17.50
2018-05-08T20:23:16.835Z,17.40
2018-05-08T20:25:46.799Z,17.30
2018-05-08T20:28:15.723Z,17.20
2018-05-08T20:30:44.705Z,17.10
2018-05-08T20:33:13.455Z,17.00
2018-05-08T20:35:44.723Z,16.90
2018-05-08T20:38:12.751Z,16.80
2018-05-08T20:40:49.883Z,16.70
2018-05-08T20:43:36.363Z,16.70
2018-05-08T20:46:07.554Z,16.70
2018-05-08T20:48:40.273Z,16.60
2018-05-08T20:51:13.979Z,16.50
2018-05-08T20:53:42.347Z,16.50
2018-05-08T20:56:13.031Z,16.30
2018-05-08T20:58:41.839Z,16.20
2018-05-08T21:01:13.166Z,16.20
2018-05-08T21:03:41.106Z,16.10
2018-05-08T21:06:12.419Z,16.20
2018-05-08T21:08:45.380Z,16.10
2018-05-08T21:11:14.311Z,16.10
2018-05-08T21:13:43.119Z,16.10
2018-05-08T21:16:13.035Z,16.10
2018-05-08T21:18:44.535Z,16.10
2018-05-08T21:21:14.483Z,16.10
2018-05-08T21:23:55.583Z,16.10
2018-05-08T21:26:26.839Z,16.00
2018-05-08T21:28:59.575Z,15.90
2018-05-08T21:31:32.287Z,15.80
2018-05-08T21:34:04.091Z,15.80
2018-05-08T21:36:34.091Z,15.80
2018-05-08T21:39:06.590Z,15.80
2018-05-08T21:41:39.467Z,15.80
2018-05-08T21:44:10.379Z,15.80
2018-05-08T21:46:43.711Z,15.80
2018-05-08T21:49:25.165Z,15.70
2018-05-08T21:52:05.976Z,15.80
2018-05-08T21:54:34.933Z,15.80
2018-05-08T21:57:05.009Z,15.70
2018-05-08T21:59:36.890Z,15.80
2018-05-08T22:02:11.226Z,15.80
2018-05-08T22:04:46.244Z,15.90
2018-05-08T22:07:16.185Z,15.90
2018-05-08T22:09:44.237Z,15.90
2018-05-08T22:12:19.214Z,15.90
2018-05-08T22:14:51.233Z,15.90
2018-05-08T22:17:20.170Z,15.90
2018-05-08T22:19:52.085Z,16.00
2018-05-08T22:22:30.382Z,16.00
2018-05-08T22:24:59.405Z,16.00
2018-05-08T22:27:27.545Z,16.00
2018-05-08T22:29:55.597Z,16.00
2018-05-08T22:32:25.562Z,15.90
2018-05-08T22:34:54.545Z,15.90
2018-05-08T22:37:22.575Z,15.90
2018-05-08T22:39:50.590Z,15.90
2018-05-08T22:42:29.015Z,15.70
2018-05-08T22:44:58.945Z,15.60
2018-05-08T22:47:30.717Z,15.40
2018-05-08T22:49:58.733Z,15.40
2018-05-08T22:52:43.789Z,15.30
2018-05-08T22:55:15.857Z,15.20
2018-05-08T22:57:44.969Z,15.10
2018-05-08T23:00:13.962Z,15.00
2018-05-08T23:02:46.369Z,14.90
2018-05-08T23:05:15.141Z,14.80
2018-05-08T23:07:44.929Z,14.70
2018-05-08T23:10:27.985Z,14.70
2018-05-08T23:13:11.221Z,14.70
2018-05-08T23:15:39.241Z,14.60
2018-05-08T23:18:07.287Z,14.60
2018-05-08T23:20:37.225Z,14.50
2018-05-08T23:23:06.245Z,14.40
2018-05-08T23:25:34.273Z,14.50
2018-05-08T23:28:05.454Z,14.40
2018-05-08T23:30:33.489Z,14.40
2018-05-08T23:33:05.777Z,14.30
2018-05-08T23:35:33.810Z,14.20
2018-05-08T23:38:02.733Z,14.20
2018-05-08T23:40:30.757Z,14.10
2018-05-08T23:42:59.525Z,14.10
2018-05-08T23:50:54.353Z,14.10
2018-05-08T23:53:22.353Z,14.10
2018-05-08T23:55:50.377Z,14.20
2018-05-08T23:58:19.357Z,14.30
